sensor_id;sensor_type;location;lat;lon;timestamp;P1;durP1;ratioP1;P2;durP2;ratioP2
1174;SDS011;576;48.418;10.074;2022-12-29T00:01:00;6.10;;;5.50;;
1174;SDS011;576;48.418;10.074;2022-12-29T00:03:30;8.23;;;5.17;;
1174;SDS011;576;48.418;10.074;2022-12-29T00:05:59;4.70;;;4.30;;
1174;SDS011;576;48.418;10.074;2022-12-29T00:08:28;5.57;;;4.70;;
1174;SDS011;576;48.418;10.074;2022-12-29T00:11:07;5.17;;;4.70;;
1174;SDS011;576;48.418;10.074;2022-12-29T00:13:35;5.27;;;4.70;;
1174;SDS011;576;48.418;10.074;2022-12-29T00:16:21;4.70;;;4.30;;
1174;SDS011;576;48.418;10.074;2022-12-29T00:18:51;5.90;;;5.50;;
1174;SDS011;576;48.418;10.074;2022-12-29T00:21:19;5.20;;;4.70;;
1174;SDS011;576;48.418;10.074;2022-12-29T00:24:06;4.30;;;3.90;;
1174;SDS011;576;48.418;10.074;2022-12-29T00:26:58;4.70;;;4.30;;
1174;SDS011;576;48.418;10.074;2022-12-29T00:29:54;5.00;;;4.70;;
1174;SDS011;576;48.418;10.074;2022-12-29T00:32:40;5.13;;;4.63;;
1174;SDS011;576;48.418;10.074;2022-12-29T00:35:28;4.03;;;3.63;;
1174;SDS011;576;48.418;10.074;2022-12-29T00:38:00;5.40;;;4.30;;
1174;SDS011;576;48.418;10.074;2022-12-29T00:40:49;5.13;;;4.70;;
1174;SDS011;576;48.418;10.074;2022-12-29T00:43:34;4.53;;;4.17;;
1174;SDS011;576;48.418;10.074;2022-12-29T00:46:20;4.73;;;4.20;;
1174;SDS011;576;48.418;10.074;2022-12-29T00:48:48;4.90;;;4.20;;
1174;SDS011;576;48.418;10.074;2022-12-29T00:51:35;4.03;;;3.73;;
1174;SDS011;576;48.418;10.074;2022-12-29T00:54:03;5.07;;;4.17;;
1174;SDS011;576;48.418;10.074;2022-12-29T00:56:32;3.43;;;3.23;;
1174;SDS011;576;48.418;10.074;2022-12-29T00:59:00;4.70;;;4.40;;
1174;SDS011;576;48.418;10.074;2022-12-29T01:01:29;4.63;;;4.23;;
1174;SDS011;576;48.418;10.074;2022-12-29T01:03:58;3.70;;;3.50;;
1174;SDS011;576;48.418;10.074;2022-12-29T01:06:29;4.50;;;4.20;;
1174;SDS011;576;48.418;10.074;2022-12-29T01:08:59;4.30;;;3.90;;
1174;SDS011;576;48.418;10.074;2022-12-29T01:11:46;5.07;;;4.03;;
1174;SDS011;576;48.418;10.074;2022-12-29T01:14:14;4.27;;;3.90;;
1174;SDS011;576;48.418;10.074;2022-12-29T01:16:44;3.80;;;3.50;;
1174;SDS011;576;48.418;10.074;2022-12-29T01:19:13;3.80;;;3.50;;
1174;SDS011;576;48.418;10.074;2022-12-29T01:21:43;3.70;;;3.40;;
1174;SDS011;576;48.418;10.074;2022-12-29T01:24:13;3.90;;;3.57;;
1174;SDS011;576;48.418;10.074;2022-12-29T01:26:42;4.00;;;3.03;;
1174;SDS011;576;48.418;10.074;2022-12-29T01:29:10;3.70;;;3.40;;
1174;SDS011;576;48.418;10.074;2022-12-29T01:31:39;3.60;;;3.30;;
1174;SDS011;576;48.418;10.074;2022-12-29T01:34:07;4.07;;;3.67;;
1174;SDS011;576;48.418;10.074;2022-12-29T01:36:37;4.00;;;3.70;;
1174;SDS011;576;48.418;10.074;2022-12-29T01:39:05;3.70;;;3.40;;
1174;SDS011;576;48.418;10.074;2022-12-29T01:41:35;4.70;;;4.33;;
1174;SDS011;576;48.418;10.074;2022-12-29T01:47:04;3.33;;;3.03;;
1174;SDS011;576;48.418;10.074;2022-12-29T01:49:34;4.10;;;3.80;;
1174;SDS011;576;48.418;10.074;2022-12-29T01:52:03;3.60;;;3.30;;
1174;SDS011;576;48.418;10.074;2022-12-29T01:54:36;4.73;;;3.70;;
1174;SDS011;576;48.418;10.074;2022-12-29T01:57:09;3.63;;;3.10;;
1174;SDS011;576;48.418;10.074;2022-12-29T01:59:41;4.50;;;3.60;;
1174;SDS011;576;48.418;10.074;2022-12-29T02:02:13;4.70;;;3.90;;
1174;SDS011;576;48.418;10.074;2022-12-29T02:04:43;3.60;;;3.30;;
1174;SDS011;576;48.418;10.074;2022-12-29T02:07:17;3.30;;;3.10;;
1174;SDS011;576;48.418;10.074;2022-12-29T02:09:48;3.10;;;2.80;;
1174;SDS011;576;48.418;10.074;2022-12-29T02:12:19;5.03;;;3.43;;
1174;SDS011;576;48.418;10.074;2022-12-29T02:14:49;2.90;;;2.70;;
1174;SDS011;576;48.418;10.074;2022-12-29T02:17:23;3.10;;;2.83;;
1174;SDS011;576;48.418;10.074;2022-12-29T02:23:47;3.20;;;3.00;;
1174;SDS011;576;48.418;10.074;2022-12-29T02:26:33;3.50;;;3.30;;
1174;SDS011;576;48.418;10.074;2022-12-29T02:29:23;3.50;;;3.20;;
1174;SDS011;576;48.418;10.074;2022-12-29T02:32:15;4.07;;;2.90;;
1174;SDS011;576;48.418;10.074;2022-12-29T02:34:51;3.60;;;3.30;;
1174;SDS011;576;48.418;10.074;2022-12-29T02:37:30;3.43;;;3.10;;
1174;SDS011;576;48.418;10.074;2022-12-29T02:40:05;2.60;;;2.40;;
1174;SDS011;576;48.418;10.074;2022-12-29T02:42:40;3.30;;;3.00;;
1174;SDS011;576;48.418;10.074;2022-12-29T02:45:18;2.53;;;2.37;;
1174;SDS011;576;48.418;10.074;2022-12-29T02:47:53;3.53;;;3.23;;
1174;SDS011;576;48.418;10.074;2022-12-29T02:50:27;3.20;;;3.00;;
1174;SDS011;576;48.418;10.074;2022-12-29T02:53:01;3.23;;;2.53;;
1174;SDS011;576;48.418;10.074;2022-12-29T02:55:33;2.63;;;2.43;;
1174;SDS011;576;48.418;10.074;2022-12-29T02:58:15;2.30;;;2.13;;
1174;SDS011;576;48.418;10.074;2022-12-29T03:00:53;2.73;;;2.53;;
1174;SDS011;576;48.418;10.074;2022-12-29T03:03:36;2.90;;;2.70;;
1174;SDS011;576;48.418;10.074;2022-12-29T03:06:21;3.27;;;2.97;;
1174;SDS011;576;48.418;10.074;2022-12-29T03:09:00;2.70;;;2.50;;
1174;SDS011;576;48.418;10.074;2022-12-29T03:11:46;2.80;;;2.60;;
1174;SDS011;576;48.418;10.074;2022-12-29T03:14:37;2.70;;;2.50;;
1174;SDS011;576;48.418;10.074;2022-12-29T03:17:35;2.87;;;2.63;;
1174;SDS011;576;48.418;10.074;2022-12-29T03:20:09;2.43;;;2.23;;
1174;SDS011;576;48.418;10.074;2022-12-29T03:22:42;2.77;;;2.40;;
1174;SDS011;576;48.418;10.074;2022-12-29T03:25:18;2.70;;;2.50;;
1174;SDS011;576;48.418;10.074;2022-12-29T03:27:53;3.00;;;2.67;;
1174;SDS011;576;48.418;10.074;2022-12-29T03:30:26;3.07;;;2.87;;
1174;SDS011;576;48.418;10.074;2022-12-29T03:32:57;4.20;;;2.60;;
1174;SDS011;576;48.418;10.074;2022-12-29T03:35:33;2.63;;;2.40;;
1174;SDS011;576;48.418;10.074;2022-12-29T03:38:09;2.87;;;2.63;;
1174;SDS011;576;48.418;10.074;2022-12-29T03:40:44;2.73;;;2.20;;
1174;SDS011;576;48.418;10.074;2022-12-29T03:43:16;2.70;;;2.50;;
1174;SDS011;576;48.418;10.074;2022-12-29T03:45:46;2.40;;;2.20;;
1174;SDS011;576;48.418;10.074;2022-12-29T03:48:14;2.30;;;2.07;;
1174;SDS011;576;48.418;10.074;2022-12-29T03:50:46;2.43;;;2.23;;
1174;SDS011;576;48.418;10.074;2022-12-29T03:53:14;2.37;;;2.17;;
1174;SDS011;576;48.418;10.074;2022-12-29T03:55:44;2.50;;;2.30;;
1174;SDS011;576;48.418;10.074;2022-12-29T03:58:12;2.70;;;2.50;;
1174;SDS011;576;48.418;10.074;2022-12-29T04:01:06;2.50;;;2.40;;
1174;SDS011;576;48.418;10.074;2022-12-29T04:03:38;3.27;;;2.97;;
1174;SDS011;576;48.418;10.074;2022-12-29T04:06:08;2.60;;;2.40;;
1174;SDS011;576;48.418;10.074;2022-12-29T04:08:50;2.57;;;2.37;;
1174;SDS011;576;48.418;10.074;2022-12-29T04:11:19;2.03;;;1.93;;
1174;SDS011;576;48.418;10.074;2022-12-29T04:13:53;2.53;;;2.33;;
1174;SDS011;576;48.418;10.074;2022-12-29T04:16:24;2.10;;;2.00;;
1174;SDS011;576;48.418;10.074;2022-12-29T04:18:52;2.10;;;2.00;;
1174;SDS011;576;48.418;10.074;2022-12-29T04:21:23;3.37;;;2.50;;
1174;SDS011;576;48.418;10.074;2022-12-29T04:23:51;2.97;;;2.77;;
1174;SDS011;576;48.418;10.074;2022-12-29T04:26:19;5.03;;;2.47;;
1174;SDS011;576;48.418;10.074;2022-12-29T04:28:54;2.67;;;1.93;;
1174;SDS011;576;48.418;10.074;2022-12-29T04:31:34;2.10;;;2.00;;
1174;SDS011;576;48.418;10.074;2022-12-29T04:34:03;1.97;;;1.87;;
1174;SDS011;576;48.418;10.074;2022-12-29T04:36:32;3.00;;;2.67;;
1174;SDS011;576;48.418;10.074;2022-12-29T04:39:01;2.07;;;1.87;;
1174;SDS011;576;48.418;10.074;2022-12-29T04:41:32;2.30;;;2.20;;
1174;SDS011;576;48.418;10.074;2022-12-29T04:44:01;2.97;;;1.80;;
1174;SDS011;576;48.418;10.074;2022-12-29T04:46:47;2.03;;;1.93;;
1174;SDS011;576;48.418;10.074;2022-12-29T04:49:32;2.03;;;1.93;;
1174;SDS011;576;48.418;10.074;2022-12-29T04:52:21;2.10;;;1.90;;
1174;SDS011;576;48.418;10.074;2022-12-29T04:54:50;1.70;;;1.60;;
1174;SDS011;576;48.418;10.074;2022-12-29T04:57:20;1.77;;;1.67;;
1174;SDS011;576;48.418;10.074;2022-12-29T04:59:52;1.93;;;1.83;;
1174;SDS011;576;48.418;10.074;2022-12-29T05:02:21;2.00;;;1.83;;
1174;SDS011;576;48.418;10.074;2022-12-29T05:04:50;3.47;;;1.80;;
1174;SDS011;576;48.418;10.074;2022-12-29T05:07:18;2.10;;;1.90;;
1174;SDS011;576;48.418;10.074;2022-12-29T05:09:49;1.77;;;1.67;;
1174;SDS011;576;48.418;10.074;2022-12-29T05:12:17;2.10;;;2.00;;
1174;SDS011;576;48.418;10.074;2022-12-29T05:14:53;2.20;;;2.00;;
1174;SDS011;576;48.418;10.074;2022-12-29T05:17:21;2.77;;;1.80;;
1174;SDS011;576;48.418;10.074;2022-12-29T05:19:49;1.80;;;1.70;;
1174;SDS011;576;48.418;10.074;2022-12-29T05:22:18;2.33;;;2.13;;
1174;SDS011;576;48.418;10.074;2022-12-29T05:24:46;1.63;;;1.53;;
1174;SDS011;576;48.418;10.074;2022-12-29T05:27:18;2.33;;;2.13;;
1174;SDS011;576;48.418;10.074;2022-12-29T05:29:51;1.87;;;1.77;;
1174;SDS011;576;48.418;10.074;2022-12-29T05:32:20;1.60;;;1.50;;
1174;SDS011;576;48.418;10.074;2022-12-29T05:34:48;1.90;;;1.70;;
1174;SDS011;576;48.418;10.074;2022-12-29T05:37:17;1.70;;;1.57;;
1174;SDS011;576;48.418;10.074;2022-12-29T05:39:45;2.47;;;1.90;;
1174;SDS011;576;48.418;10.074;2022-12-29T05:42:13;3.00;;;1.53;;
1174;SDS011;576;48.418;10.074;2022-12-29T05:45:05;1.90;;;1.80;;
1174;SDS011;576;48.418;10.074;2022-12-29T05:47:54;2.97;;;2.17;;
1174;SDS011;576;48.418;10.074;2022-12-29T05:50:46;2.87;;;2.30;;
1174;SDS011;576;48.418;10.074;2022-12-29T05:53:17;1.63;;;1.53;;
1174;SDS011;576;48.418;10.074;2022-12-29T05:55:46;3.67;;;2.97;;
1174;SDS011;576;48.418;10.074;2022-12-29T05:58:16;6.43;;;1.97;;
1174;SDS011;576;48.418;10.074;2022-12-29T06:00:47;2.97;;;2.33;;
1174;SDS011;576;48.418;10.074;2022-12-29T06:03:15;2.23;;;2.03;;
1174;SDS011;576;48.418;10.074;2022-12-29T06:05:44;2.53;;;2.10;;
1174;SDS011;576;48.418;10.074;2022-12-29T06:08:14;3.17;;;1.93;;
1174;SDS011;576;48.418;10.074;2022-12-29T06:10:43;2.50;;;2.13;;
1174;SDS011;576;48.418;10.074;2022-12-29T06:13:11;2.67;;;2.07;;
1174;SDS011;576;48.418;10.074;2022-12-29T06:15:42;3.13;;;2.20;;
1174;SDS011;576;48.418;10.074;2022-12-29T06:18:11;3.43;;;2.00;;
1174;SDS011;576;48.418;10.074;2022-12-29T06:20:46;3.30;;;2.47;;
1174;SDS011;576;48.418;10.074;2022-12-29T06:23:16;2.73;;;1.70;;
1174;SDS011;576;48.418;10.074;2022-12-29T06:25:46;2.93;;;2.10;;
1174;SDS011;576;48.418;10.074;2022-12-29T06:28:15;3.07;;;1.93;;
1174;SDS011;576;48.418;10.074;2022-12-29T06:30:44;4.67;;;2.37;;
1174;SDS011;576;48.418;10.074;2022-12-29T06:33:14;2.80;;;2.00;;
1174;SDS011;576;48.418;10.074;2022-12-29T06:35:43;2.20;;;2.00;;
1174;SDS011;576;48.418;10.074;2022-12-29T06:38:13;2.30;;;2.20;;
1174;SDS011;576;48.418;10.074;2022-12-29T06:40:42;2.80;;;1.97;;
1174;SDS011;576;48.418;10.074;2022-12-29T06:43:40;1.97;;;1.87;;
1174;SDS011;576;48.418;10.074;2022-12-29T06:46:35;2.17;;;1.97;;
1174;SDS011;576;48.418;10.074;2022-12-29T06:49:05;4.53;;;2.33;;
1174;SDS011;576;48.418;10.074;2022-12-29T06:51:33;4.80;;;2.20;;
1174;SDS011;576;48.418;10.074;2022-12-29T06:54:01;4.13;;;2.50;;
1174;SDS011;576;48.418;10.074;2022-12-29T06:56:29;2.47;;;1.67;;
1174;SDS011;576;48.418;10.074;2022-12-29T06:58:58;2.70;;;2.50;;
1174;SDS011;576;48.418;10.074;2022-12-29T07:01:27;2.73;;;1.90;;
1174;SDS011;576;48.418;10.074;2022-12-29T07:03:55;2.50;;;2.30;;
1174;SDS011;576;48.418;10.074;2022-12-29T07:06:25;2.73;;;1.90;;
1174;SDS011;576;48.418;10.074;2022-12-29T07:08:53;5.63;;;2.20;;
1174;SDS011;576;48.418;10.074;2022-12-29T07:11:23;2.20;;;2.10;;
1174;SDS011;576;48.418;10.074;2022-12-29T07:13:51;3.33;;;2.20;;
1174;SDS011;576;48.418;10.074;2022-12-29T07:16:19;1.80;;;1.53;;
1174;SDS011;576;48.418;10.074;2022-12-29T07:18:48;3.63;;;2.00;;
1174;SDS011;576;48.418;10.074;2022-12-29T07:21:16;1.90;;;1.80;;
1174;SDS011;576;48.418;10.074;2022-12-29T07:23:46;1.87;;;1.77;;
1174;SDS011;576;48.418;10.074;2022-12-29T07:26:14;2.03;;;1.90;;
1174;SDS011;576;48.418;10.074;2022-12-29T07:28:44;2.00;;;1.80;;
1174;SDS011;576;48.418;10.074;2022-12-29T07:31:12;7.77;;;2.10;;
1174;SDS011;576;48.418;10.074;2022-12-29T07:33:42;1.70;;;1.60;;
1174;SDS011;576;48.418;10.074;2022-12-29T07:36:11;2.87;;;2.10;;
1174;SDS011;576;48.418;10.074;2022-12-29T07:38:40;4.70;;;1.90;;
1174;SDS011;576;48.418;10.074;2022-12-29T07:41:10;2.00;;;1.90;;
1174;SDS011;576;48.418;10.074;2022-12-29T07:43:38;3.17;;;1.67;;
1174;SDS011;576;48.418;10.074;2022-12-29T07:46:32;1.87;;;1.77;;
1174;SDS011;576;48.418;10.074;2022-12-29T07:49:20;1.83;;;1.73;;
1174;SDS011;576;48.418;10.074;2022-12-29T07:51:48;1.73;;;1.63;;
1174;SDS011;576;48.418;10.074;2022-12-29T07:54:16;1.70;;;1.60;;
1174;SDS011;576;48.418;10.074;2022-12-29T07:56:46;1.90;;;1.80;;
1174;SDS011;576;48.418;10.074;2022-12-29T07:59:15;2.40;;;1.77;;
1174;SDS011;576;48.418;10.074;2022-12-29T08:01:43;1.83;;;1.70;;
1174;SDS011;576;48.418;10.074;2022-12-29T08:04:11;1.70;;;1.43;;
1174;SDS011;576;48.418;10.074;2022-12-29T08:06:39;1.93;;;1.50;;
1174;SDS011;576;48.418;10.074;2022-12-29T08:09:08;2.00;;;1.77;;
1174;SDS011;576;48.418;10.074;2022-12-29T08:11:45;2.93;;;1.37;;
1174;SDS011;576;48.418;10.074;2022-12-29T08:14:14;1.47;;;1.37;;
1174;SDS011;576;48.418;10.074;2022-12-29T08:16:42;1.30;;;1.20;;
1174;SDS011;576;48.418;10.074;2022-12-29T08:19:11;1.20;;;1.20;;
1174;SDS011;576;48.418;10.074;2022-12-29T08:21:39;1.60;;;1.50;;
1174;SDS011;576;48.418;10.074;2022-12-29T08:24:08;1.73;;;1.63;;
1174;SDS011;576;48.418;10.074;2022-12-29T08:26:36;1.60;;;1.50;;
1174;SDS011;576;48.418;10.074;2022-12-29T08:29:06;1.77;;;1.60;;
1174;SDS011;576;48.418;10.074;2022-12-29T08:31:34;1.77;;;1.67;;
1174;SDS011;576;48.418;10.074;2022-12-29T08:34:02;2.07;;;1.87;;
1174;SDS011;576;48.418;10.074;2022-12-29T08:36:30;1.77;;;1.63;;
1174;SDS011;576;48.418;10.074;2022-12-29T08:38:59;2.43;;;1.53;;
1174;SDS011;576;48.418;10.074;2022-12-29T08:41:27;2.07;;;1.87;;
1174;SDS011;576;48.418;10.074;2022-12-29T08:43:55;1.70;;;1.60;;
1174;SDS011;576;48.418;10.074;2022-12-29T08:46:25;1.70;;;1.43;;
1174;SDS011;576;48.418;10.074;2022-12-29T08:48:53;2.50;;;1.70;;
1174;SDS011;576;48.418;10.074;2022-12-29T08:51:21;1.87;;;1.77;;
1174;SDS011;576;48.418;10.074;2022-12-29T08:53:51;1.70;;;1.60;;
1174;SDS011;576;48.418;10.074;2022-12-29T08:56:20;1.13;;;1.07;;
1174;SDS011;576;48.418;10.074;2022-12-29T08:58:53;2.57;;;1.50;;
1174;SDS011;576;48.418;10.074;2022-12-29T09:01:24;1.70;;;1.60;;
1174;SDS011;576;48.418;10.074;2022-12-29T09:03:53;1.50;;;1.40;;
1174;SDS011;576;48.418;10.074;2022-12-29T09:06:41;1.40;;;1.30;;
1174;SDS011;576;48.418;10.074;2022-12-29T09:09:10;5.53;;;1.77;;
1174;SDS011;576;48.418;10.074;2022-12-29T09:11:38;1.30;;;1.20;;
1174;SDS011;576;48.418;10.074;2022-12-29T09:14:06;1.40;;;1.30;;
1174;SDS011;576;48.418;10.074;2022-12-29T09:16:36;1.97;;;1.63;;
1174;SDS011;576;48.418;10.074;2022-12-29T09:19:05;1.47;;;1.37;;
1174;SDS011;576;48.418;10.074;2022-12-29T09:21:33;1.70;;;1.37;;
1174;SDS011;576;48.418;10.074;2022-12-29T09:24:01;1.57;;;1.47;;
1174;SDS011;576;48.418;10.074;2022-12-29T09:26:29;1.47;;;1.37;;
1174;SDS011;576;48.418;10.074;2022-12-29T09:28:58;1.10;;;1.10;;
1174;SDS011;576;48.418;10.074;2022-12-29T09:31:26;1.40;;;1.23;;
1174;SDS011;576;48.418;10.074;2022-12-29T09:33:55;1.60;;;1.50;;
1174;SDS011;576;48.418;10.074;2022-12-29T09:36:23;1.70;;;1.60;;
1174;SDS011;576;48.418;10.074;2022-12-29T09:38:52;1.43;;;1.33;;
1174;SDS011;576;48.418;10.074;2022-12-29T09:41:22;1.33;;;1.23;;
1174;SDS011;576;48.418;10.074;2022-12-29T09:43:57;1.33;;;1.23;;
1174;SDS011;576;48.418;10.074;2022-12-29T09:46:32;1.47;;;1.37;;
1174;SDS011;576;48.418;10.074;2022-12-29T09:49:13;1.80;;;1.70;;
1174;SDS011;576;48.418;10.074;2022-12-29T09:51:49;1.33;;;1.23;;
1174;SDS011;576;48.418;10.074;2022-12-29T09:54:26;1.60;;;1.50;;
1174;SDS011;576;48.418;10.074;2022-12-29T09:57:02;1.77;;;1.67;;
1174;SDS011;576;48.418;10.074;2022-12-29T09:59:34;1.30;;;1.20;;
1174;SDS011;576;48.418;10.074;2022-12-29T10:02:12;1.40;;;1.20;;
1174;SDS011;576;48.418;10.074;2022-12-29T10:04:52;1.53;;;1.43;;
1174;SDS011;576;48.418;10.074;2022-12-29T10:07:24;1.63;;;1.53;;
1174;SDS011;576;48.418;10.074;2022-12-29T10:10:00;1.20;;;1.20;;
1174;SDS011;576;48.418;10.074;2022-12-29T10:12:47;1.80;;;1.50;;
1174;SDS011;576;48.418;10.074;2022-12-29T10:15:29;1.40;;;1.30;;
1174;SDS011;576;48.418;10.074;2022-12-29T10:18:19;1.20;;;1.20;;
1174;SDS011;576;48.418;10.074;2022-12-29T10:21:03;1.50;;;1.40;;
1174;SDS011;576;48.418;10.074;2022-12-29T10:23:38;1.50;;;1.40;;
1174;SDS011;576;48.418;10.074;2022-12-29T10:26:10;1.60;;;1.50;;
1174;SDS011;576;48.418;10.074;2022-12-29T10:28:43;1.30;;;1.20;;
1174;SDS011;576;48.418;10.074;2022-12-29T10:31:14;2.23;;;1.40;;
1174;SDS011;576;48.418;10.074;2022-12-29T10:33:49;1.97;;;1.87;;
1174;SDS011;576;48.418;10.074;2022-12-29T10:36:23;1.70;;;1.60;;
1174;SDS011;576;48.418;10.074;2022-12-29T10:38:58;2.00;;;1.60;;
1174;SDS011;576;48.418;10.074;2022-12-29T10:41:36;2.20;;;1.70;;
1174;SDS011;576;48.418;10.074;2022-12-29T10:44:07;1.77;;;1.67;;
1174;SDS011;576;48.418;10.074;2022-12-29T10:46:41;1.43;;;1.10;;
1174;SDS011;576;48.418;10.074;2022-12-29T10:49:12;1.57;;;1.47;;
1174;SDS011;576;48.418;10.074;2022-12-29T10:51:49;1.70;;;1.60;;
1174;SDS011;576;48.418;10.074;2022-12-29T10:54:20;1.87;;;1.57;;
1174;SDS011;576;48.418;10.074;2022-12-29T10:56:54;1.50;;;1.40;;
1174;SDS011;576;48.418;10.074;2022-12-29T10:59:28;1.57;;;1.47;;
1174;SDS011;576;48.418;10.074;2022-12-29T11:02:00;1.27;;;1.17;;
1174;SDS011;576;48.418;10.074;2022-12-29T11:04:46;1.57;;;1.47;;
1174;SDS011;576;48.418;10.074;2022-12-29T11:07:21;1.40;;;1.30;;
1174;SDS011;576;48.418;10.074;2022-12-29T11:09:53;1.67;;;1.57;;
1174;SDS011;576;48.418;10.074;2022-12-29T11:12:22;1.70;;;1.60;;
1174;SDS011;576;48.418;10.074;2022-12-29T11:15:06;1.87;;;1.60;;
1174;SDS011;576;48.418;10.074;2022-12-29T11:17:44;1.40;;;1.20;;
1174;SDS011;576;48.418;10.074;2022-12-29T11:23:05;2.33;;;1.23;;
1174;SDS011;576;48.418;10.074;2022-12-29T11:26:05;1.57;;;1.50;;
1174;SDS011;576;48.418;10.074;2022-12-29T11:28:45;1.53;;;1.43;;
1174;SDS011;576;48.418;10.074;2022-12-29T11:31:15;1.30;;;1.20;;
1174;SDS011;576;48.418;10.074;2022-12-29T11:33:45;1.40;;;1.30;;
1174;SDS011;576;48.418;10.074;2022-12-29T11:36:14;1.33;;;1.30;;
1174;SDS011;576;48.418;10.074;2022-12-29T11:38:48;1.70;;;1.60;;
1174;SDS011;576;48.418;10.074;2022-12-29T11:41:21;1.63;;;1.40;;
1174;SDS011;576;48.418;10.074;2022-12-29T11:43:52;1.40;;;1.30;;
1174;SDS011;576;48.418;10.074;2022-12-29T11:46:23;1.50;;;1.40;;
1174;SDS011;576;48.418;10.074;2022-12-29T11:48:54;1.60;;;1.50;;
1174;SDS011;576;48.418;10.074;2022-12-29T11:51:26;1.43;;;1.33;;
1174;SDS011;576;48.418;10.074;2022-12-29T11:53:58;1.67;;;1.57;;
1174;SDS011;576;48.418;10.074;2022-12-29T11:56:33;1.40;;;1.30;;
1174;SDS011;576;48.418;10.074;2022-12-29T12:02:11;1.90;;;1.73;;
1174;SDS011;576;48.418;10.074;2022-12-29T12:05:13;1.53;;;1.43;;
1174;SDS011;576;48.418;10.074;2022-12-29T12:07:54;1.77;;;1.67;;
1174;SDS011;576;48.418;10.074;2022-12-29T12:10:29;1.20;;;1.20;;
1174;SDS011;576;48.418;10.074;2022-12-29T12:13:06;3.33;;;1.50;;
1174;SDS011;576;48.418;10.074;2022-12-29T12:15:44;1.63;;;1.53;;
1174;SDS011;576;48.418;10.074;2022-12-29T12:18:26;1.80;;;1.70;;
1174;SDS011;576;48.418;10.074;2022-12-29T12:21:04;1.50;;;1.20;;
1174;SDS011;576;48.418;10.074;2022-12-29T12:23:38;1.57;;;1.40;;
1174;SDS011;576;48.418;10.074;2022-12-29T12:26:18;1.33;;;1.20;;
1174;SDS011;576;48.418;10.074;2022-12-29T12:28:50;1.63;;;1.53;;
1174;SDS011;576;48.418;10.074;2022-12-29T12:31:24;1.40;;;1.30;;
1174;SDS011;576;48.418;10.074;2022-12-29T12:34:04;3.90;;;1.70;;
1174;SDS011;576;48.418;10.074;2022-12-29T12:36:48;1.07;;;1.07;;
1174;SDS011;576;48.418;10.074;2022-12-29T12:39:39;1.40;;;1.30;;
1174;SDS011;576;48.418;10.074;2022-12-29T12:42:18;1.70;;;1.40;;
1174;SDS011;576;48.418;10.074;2022-12-29T12:44:56;1.30;;;1.20;;
1174;SDS011;576;48.418;10.074;2022-12-29T12:47:45;1.40;;;1.30;;
1174;SDS011;576;48.418;10.074;2022-12-29T12:50:27;1.50;;;1.40;;
1174;SDS011;576;48.418;10.074;2022-12-29T12:53:07;2.10;;;1.70;;
1174;SDS011;576;48.418;10.074;2022-12-29T12:56:03;1.27;;;1.17;;
1174;SDS011;576;48.418;10.074;2022-12-29T12:59:01;1.47;;;1.33;;
1174;SDS011;576;48.418;10.074;2022-12-29T13:01:38;1.60;;;1.50;;
1174;SDS011;576;48.418;10.074;2022-12-29T13:04:26;1.40;;;1.30;;
1174;SDS011;576;48.418;10.074;2022-12-29T13:07:07;1.83;;;1.73;;
1174;SDS011;576;48.418;10.074;2022-12-29T13:09:48;1.33;;;1.33;;
1174;SDS011;576;48.418;10.074;2022-12-29T13:12:29;1.40;;;1.30;;
1174;SDS011;576;48.418;10.074;2022-12-29T13:15:15;1.73;;;1.63;;
1174;SDS011;576;48.418;10.074;2022-12-29T13:17:52;1.10;;;1.00;;
1174;SDS011;576;48.418;10.074;2022-12-29T13:20:32;1.80;;;1.40;;
1174;SDS011;576;48.418;10.074;2022-12-29T13:23:07;1.83;;;1.50;;
1174;SDS011;576;48.418;10.074;2022-12-29T13:25:44;1.93;;;1.67;;
1174;SDS011;576;48.418;10.074;2022-12-29T13:28:19;2.23;;;1.50;;
1174;SDS011;576;48.418;10.074;2022-12-29T13:30:57;1.20;;;1.20;;
1174;SDS011;576;48.418;10.074;2022-12-29T13:33:34;1.53;;;1.20;;
1174;SDS011;576;48.418;10.074;2022-12-29T13:36:09;1.47;;;1.10;;
1174;SDS011;576;48.418;10.074;2022-12-29T13:38:50;1.10;;;1.10;;
1174;SDS011;576;48.418;10.074;2022-12-29T13:41:25;1.30;;;1.20;;
1174;SDS011;576;48.418;10.074;2022-12-29T13:43:58;1.30;;;1.20;;
1174;SDS011;576;48.418;10.074;2022-12-29T13:46:35;1.50;;;1.40;;
1174;SDS011;576;48.418;10.074;2022-12-29T13:49:06;1.30;;;1.20;;
1174;SDS011;576;48.418;10.074;2022-12-29T13:51:41;2.07;;;1.50;;
1174;SDS011;576;48.418;10.074;2022-12-29T13:54:17;1.60;;;1.50;;
1174;SDS011;576;48.418;10.074;2022-12-29T13:56:56;1.87;;;1.50;;
1174;SDS011;576;48.418;10.074;2022-12-29T13:59:36;1.40;;;1.23;;
1174;SDS011;576;48.418;10.074;2022-12-29T14:02:15;1.30;;;1.20;;
1174;SDS011;576;48.418;10.074;2022-12-29T14:04:55;1.30;;;1.20;;
1174;SDS011;576;48.418;10.074;2022-12-29T14:07:25;1.10;;;1.10;;
1174;SDS011;576;48.418;10.074;2022-12-29T14:09:54;1.33;;;1.23;;
1174;SDS011;576;48.418;10.074;2022-12-29T14:12:34;1.00;;;1.00;;
1174;SDS011;576;48.418;10.074;2022-12-29T14:15:15;1.30;;;1.20;;
1174;SDS011;576;48.418;10.074;2022-12-29T14:18:01;1.97;;;1.43;;
1174;SDS011;576;48.418;10.074;2022-12-29T14:20:32;1.60;;;1.50;;
1174;SDS011;576;48.418;10.074;2022-12-29T14:23:01;1.63;;;1.53;;
1174;SDS011;576;48.418;10.074;2022-12-29T14:25:54;1.70;;;1.27;;
1174;SDS011;576;48.418;10.074;2022-12-29T14:28:25;1.30;;;1.20;;
1174;SDS011;576;48.418;10.074;2022-12-29T14:30:55;1.60;;;1.30;;
1174;SDS011;576;48.418;10.074;2022-12-29T14:33:27;1.80;;;1.53;;
1174;SDS011;576;48.418;10.074;2022-12-29T14:35:57;1.77;;;1.67;;
1174;SDS011;576;48.418;10.074;2022-12-29T14:38:49;1.47;;;1.37;;
1174;SDS011;576;48.418;10.074;2022-12-29T14:41:24;1.20;;;1.10;;
1174;SDS011;576;48.418;10.074;2022-12-29T14:46:45;1.60;;;1.50;;
1174;SDS011;576;48.418;10.074;2022-12-29T14:49:19;1.50;;;1.40;;
1174;SDS011;576;48.418;10.074;2022-12-29T14:51:50;1.40;;;1.30;;
1174;SDS011;576;48.418;10.074;2022-12-29T14:57:19;1.43;;;1.33;;
1174;SDS011;576;48.418;10.074;2022-12-29T14:59:52;1.03;;;1.03;;
1174;SDS011;576;48.418;10.074;2022-12-29T15:02:24;1.50;;;1.40;;
1174;SDS011;576;48.418;10.074;2022-12-29T15:04:59;1.23;;;1.23;;
1174;SDS011;576;48.418;10.074;2022-12-29T15:07:29;1.53;;;1.20;;
1174;SDS011;576;48.418;10.074;2022-12-29T15:10:00;1.63;;;1.53;;
1174;SDS011;576;48.418;10.074;2022-12-29T15:12:36;1.13;;;1.10;;
1174;SDS011;576;48.418;10.074;2022-12-29T15:15:17;1.43;;;1.33;;
1174;SDS011;576;48.418;10.074;2022-12-29T15:17:47;1.00;;;1.00;;
1174;SDS011;576;48.418;10.074;2022-12-29T15:20:21;1.47;;;1.40;;
1174;SDS011;576;48.418;10.074;2022-12-29T15:22:53;1.40;;;1.30;;
1174;SDS011;576;48.418;10.074;2022-12-29T15:25:23;0.97;;;0.97;;
1174;SDS011;576;48.418;10.074;2022-12-29T15:27:53;1.37;;;1.27;;
1174;SDS011;576;48.418;10.074;2022-12-29T15:30:24;1.27;;;1.17;;
1174;SDS011;576;48.418;10.074;2022-12-29T15:32:52;1.10;;;1.10;;
1174;SDS011;576;48.418;10.074;2022-12-29T15:35:23;1.00;;;1.00;;
1174;SDS011;576;48.418;10.074;2022-12-29T15:37:57;1.10;;;1.10;;
1174;SDS011;576;48.418;10.074;2022-12-29T15:40:26;1.53;;;1.43;;
1174;SDS011;576;48.418;10.074;2022-12-29T15:43:09;1.57;;;1.47;;
1174;SDS011;576;48.418;10.074;2022-12-29T15:45:49;1.17;;;1.17;;
1174;SDS011;576;48.418;10.074;2022-12-29T15:48:19;1.20;;;1.13;;
1174;SDS011;576;48.418;10.074;2022-12-29T15:50:51;1.10;;;1.10;;
1174;SDS011;576;48.418;10.074;2022-12-29T15:53:21;1.57;;;1.13;;
1174;SDS011;576;48.418;10.074;2022-12-29T15:55:54;1.67;;;1.57;;
1174;SDS011;576;48.418;10.074;2022-12-29T15:58:30;1.10;;;1.10;;
1174;SDS011;576;48.418;10.074;2022-12-29T16:00:59;1.20;;;1.20;;
1174;SDS011;576;48.418;10.074;2022-12-29T16:03:29;1.70;;;1.60;;
1174;SDS011;576;48.418;10.074;2022-12-29T16:06:09;1.10;;;1.10;;
1174;SDS011;576;48.418;10.074;2022-12-29T16:08:55;1.43;;;1.33;;
1174;SDS011;576;48.418;10.074;2022-12-29T16:11:25;1.20;;;1.10;;
1174;SDS011;576;48.418;10.074;2022-12-29T16:13:56;1.60;;;1.50;;
1174;SDS011;576;48.418;10.074;2022-12-29T16:16:25;1.83;;;1.63;;